Decoded Metar for RJCC (SAPPORO in JAPAN) (IATA:CTS) | Meteo·Mobile Aviation Weather
aviador You're here:

RJCC Decoded Metar

SAPPORO in JAPAN
Report Time2019-10-21 08:00:00
UTC Time2019-10-21 08:24:13
Flight Rules vfr VFR
Wind130° at 04 kt
W.Decomp.*RWY 19: 2.5 kt HW 3.1 kt LCW
Visibility9999 m
Phenomena:N/A
Clouds:Few 030 Hf
Expected CloudBase > 1,200 ft AGL from Temp-Dew spread
CeilingNone
Temp13°C (ISA -2)
Dew Point10°C (82% RH)
AAT11.6°C
QNH1020 hPa
Density Alt-187 ft
Elevation98 ft
Report Wrong Elevation
Raw Report
RJCC 210800Z 13004KT 9999 FEW030 BKN/// 13/10 Q1020 RMK 1CU030
A3013=

Extra information for RJCC:More info

Metar Taf Metar & Taf Last 4 Metars F.Rules Stats Wind Profile Meteogram Temp Stats Airport Information Weather charts Add Link Nearby VenuesMetar ALERT Operation Metar Decoded Social comments